メインページ
METAR-TAF:

METAR-TAF

空港 :

スワンナプーム国際空港

バンコク.スワンナプーム, タイ

緯度: 13-40-52N, 経度: 100-44-50E, 海抜: 2m

現時点の気象観測

当レポートは43分前の06:00(UTC)に作成
南/南西の風 9kt、南/南東から南西の間で変化する
気温 34°C
湿度 50%
気圧 1007 hPa
視程10km以上
高度2000ftの雲はほとんどない

METAR: VTBS 180600Z 20009KT 160V230 9999 FEW020 34/22 Q1007 NOSIG

時間: 13:43 (06:43 UTC)

予報

当レポートは1時間43分前の05:00(UTC)に作成
予報は18日の 06時(UTC)から 19日の 12時(UTC)まで有効
南西の風 8kt
視程10km以上
高度2000ftの雲はほとんどない
18日の 10時(UTC)から 18日の 14時(UTC)まで一時的に
変向風 15kt
視程: 4000m
高度1800ftの雲はほとんどない, 積乱雲.
高度3500ftの雲は散在している
激しい雷雨, 雨,

TAF: VTBS 180500Z 1806/1912 23008KT 9999 FEW020 TEMPO 1810/1814 VRB15KT 4000 TSRA FEW018CB SCT035

4,000以上の空港の気象観測と天気予報(METAR報とTAF報)

利用可能な観測所は地図上に黄色い丸と赤い丸で示す。

丸の上にカーソルを重ねると観測所名を参照できる。

次にクリックすると気象観測と天気予報を参照できる。

マップの切り替え:黒色「×」印の緑ボタンをクリックして拡大、「-」印の緑ボタンをクリックして縮小、緑色の三角印をクリックして隣りの地図に切り替え


METAR-TAF: